Time;durP1;ratioP1;P1;durP2;ratioP2;P2;SDS_P1;SDS_P2;PMS_P1;PMS_P2;Temp;Humidity;BMP_temperature;BMP_pressure;BME280_temperature;BME280_humidity;BME280_pressure;Samples;Min_cycle;Max_cycle;Signal;HPM_P1;HPM_P2
2021/05/15 09:56:32;;;;;;;20.80;16.93;;;13.50;99.90;;;;;;13145047;22;815060;-96
2021/05/15 10:08:08;;;;;;;52.42;18.70;;;14.10;99.90;;;;;;10468533;28;20434;-53
2021/05/15 10:20:16;;;;;;;37.67;19.05;;;16.90;99.90;;;;;;10543035;27;1427718;-58
2021/05/15 10:25:18;;;;;;;22.10;18.02;;;16.90;99.90;;;;;;10492186;28;20051;-59
2021/05/15 10:30:22;;;;;;;19.63;15.57;;;16.80;96.70;;;;;;10491943;28;20370;-61
2021/05/15 10:35:39;;;;;;;26.73;17.08;;;17.00;99.90;;;;;;10491363;28;20506;-60
2021/05/15 10:40:46;;;;;;;21.02;17.00;;;17.00;99.80;;;;;;10492228;28;20131;-60
2021/05/15 10:45:49;;;;;;;22.00;18.88;;;16.80;98.50;;;;;;10490448;28;20115;-60
2021/05/15 10:50:58;;;;;;;24.58;20.60;;;16.70;98.20;;;;;;10490281;28;20457;-59
2021/05/15 10:56:12;;;;;;;22.80;17.73;;;16.90;99.40;;;;;;10491343;28;20045;-59
2021/05/15 11:01:21;;;;;;;21.02;18.20;;;17.00;99.90;;;;;;10491061;28;20045;-61
2021/05/15 11:06:29;;;;;;;26.58;19.02;;;17.30;99.60;;;;;;10490950;28;20050;-60
2021/05/15 11:11:42;;;;;;;24.00;18.83;;;16.80;98.00;;;;;;10491123;28;20041;-61
2021/05/15 11:16:44;;;;;;;20.48;16.58;;;17.10;98.00;;;;;;10490491;28;20058;-60
2021/05/15 11:21:52;;;;;;;24.25;17.67;;;16.50;97.30;;;;;;10488702;28;20045;-59
2021/05/15 11:26:57;;;;;;;13.02;10.98;;;16.10;98.80;;;;;;10489121;28;20083;-62
2021/05/15 11:32:08;;;;;;;10.50;7.13;;;15.50;98.60;;;;;;10459982;28;20041;-63
2021/05/15 11:37:13;;;;;;;6.63;4.80;;;15.60;99.70;;;;;;10459548;28;20123;-61
2021/05/15 11:42:15;;;;;;;6.22;3.75;;;15.10;99.90;;;;;;10462058;28;20099;-63
2021/05/15 11:47:18;;;;;;;4.40;3.63;;;15.00;99.90;;;;;;10462134;28;20071;-62
2021/05/15 11:52:30;;;;;;;4.97;3.47;;;15.20;99.90;;;;;;10461610;28;20355;-61
2021/05/15 11:57:32;;;;;;;5.47;2.70;;;15.10;99.90;;;;;;10460768;28;20124;-62
2021/05/15 12:02:34;;;;;;;2.70;2.40;;;15.50;99.90;;;;;;10461409;28;20051;-62
2021/05/15 12:07:36;;;;;;;4.22;2.20;;;15.90;99.90;;;;;;10461114;28;20052;-61
2021/05/15 12:12:37;;;;;;;1.95;1.58;;;16.50;99.90;;;;;;10460792;28;20052;-61
2021/05/15 12:17:39;;;;;;;3.15;1.92;;;16.10;99.90;;;;;;10475846;28;20404;-61
2021/05/15 12:22:41;;;;;;;6.72;3.05;;;16.00;99.90;;;;;;10461260;28;20204;-61
2021/05/15 12:27:44;;;;;;;4.38;3.08;;;16.20;99.90;;;;;;10460336;28;20045;-63
2021/05/15 12:33:06;;;;;;;3.50;2.58;;;15.50;99.90;;;;;;10460074;28;20041;-61
2021/05/15 12:38:08;;;;;;;3.65;2.83;;;16.00;99.90;;;;;;10460090;28;20041;-61
2021/05/15 12:43:13;;;;;;;3.65;3.17;;;16.60;99.90;;;;;;10457274;28;20441;-60
2021/05/15 12:48:39;;;;;;;4.30;3.15;;;16.60;99.90;;;;;;10460008;28;20072;-61
2021/05/15 12:53:41;;;;;;;3.15;2.53;;;16.00;99.90;;;;;;10459286;28;20460;-60
2021/05/15 12:58:51;;;;;;;6.30;3.17;;;16.40;99.90;;;;;;10459321;28;20040;-61
2021/05/15 13:03:56;;;;;;;5.20;2.88;;;16.50;99.90;;;;;;10458485;28;20477;-59
2021/05/15 13:09:03;;;;;;;4.05;3.20;;;16.30;99.90;;;;;;10458608;28;20531;-62
2021/05/15 13:14:05;;;;;;;5.95;3.70;;;16.70;99.90;;;;;;10458238;28;20087;-61
2021/05/15 13:19:07;;;;;;;28.35;25.73;;;17.00;99.90;;;;;;10457898;28;20057;-61
2021/05/15 13:24:09;;;;;;;4.38;3.97;;;17.10;99.90;;;;;;10458705;28;20044;-62
2021/05/15 13:29:11;;;;;;;5.68;4.60;;;16.80;99.90;;;;;;10457789;28;20045;-61
2021/05/15 13:34:13;;;;;;;5.18;3.92;;;16.50;99.90;;;;;;10457716;28;20476;-61
2021/05/15 13:39:15;;;;;;;5.28;3.90;;;16.70;99.90;;;;;;10457765;28;20044;-61
2021/05/15 13:44:17;;;;;;;5.18;4.03;;;17.00;99.90;;;;;;10457473;28;20040;-62
2021/05/15 13:49:23;;;;;;;14.00;10.77;;;16.80;99.90;;;;;;10457252;28;20048;-64
2021/05/15 13:54:25;;;;;;;5.95;5.43;;;16.40;99.90;;;;;;10457312;28;20052;-62
2021/05/15 13:59:27;;;;;;;5.20;4.70;;;15.90;99.90;;;;;;10456757;28;20503;-63
2021/05/15 14:04:29;;;;;;;20.58;13.52;;;15.40;99.90;;;;;;10456734;28;20041;-63
2021/05/15 14:09:31;;;;;;;9.30;6.95;;;15.20;99.90;;;;;;10457108;28;20051;-61
2021/05/15 14:14:33;;;;;;;54.70;28.20;;;15.00;99.90;;;;;;10456112;28;20047;-61
2021/05/15 14:19:35;;;;;;;29.17;18.58;;;14.90;99.90;;;;;;10456792;28;20500;-61
2021/05/15 14:24:37;;;;;;;7.55;6.25;;;14.90;99.90;;;;;;10456424;28;20043;-63
2021/05/15 14:29:39;;;;;;;4.32;3.90;;;14.80;99.90;;;;;;10456625;28;20068;-64
2021/05/15 14:34:41;;;;;;;6.13;3.90;;;14.80;99.90;;;;;;10456334;28;20056;-62
2021/05/15 14:39:43;;;;;;;5.32;2.97;;;14.80;99.90;;;;;;10456227;28;20052;-63
2021/05/15 14:44:47;;;;;;;4.30;3.13;;;14.90;99.90;;;;;;10456002;28;20072;-64
2021/05/15 14:49:48;;;;;;;4.70;4.00;;;15.10;99.90;;;;;;10456039;28;20049;-62
2021/05/15 14:54:50;;;;;;;37.08;23.27;;;15.10;99.90;;;;;;10455653;28;20045;-62
2021/05/15 14:59:52;;;;;;;16.80;15.07;;;15.20;99.90;;;;;;10454761;28;20051;-64
2021/05/15 15:04:54;;;;;;;4.75;4.28;;;15.30;99.90;;;;;;10460170;28;20048;-62
2021/05/15 15:09:56;;;;;;;5.50;4.03;;;15.30;99.90;;;;;;10463407;28;20127;-64
2021/05/15 15:15:00;;;;;;;7.10;4.32;;;15.30;99.90;;;;;;10478549;28;20051;-62
2021/05/15 15:20:04;;;;;;;7.05;5.07;;;15.20;99.90;;;;;;10463039;28;20085;-65
2021/05/15 15:25:08;;;;;;;5.70;4.88;;;15.20;99.90;;;;;;10462499;28;20045;-63
2021/05/15 15:30:11;;;;;;;6.40;5.30;;;15.20;99.90;;;;;;10462459;28;20052;-61
2021/05/15 15:35:13;;;;;;;10.18;9.02;;;15.20;99.90;;;;;;10462014;28;20389;-62
2021/05/15 15:40:17;;;;;;;88.38;48.47;;;15.20;99.90;;;;;;10461751;28;20047;-63
2021/05/15 15:45:19;;;;;;;17.75;10.55;;;14.90;99.90;;;;;;10461593;28;20048;-62
2021/05/15 15:50:21;;;;;;;5.78;5.28;;;14.80;99.90;;;;;;10461714;28;20396;-62
2021/05/15 15:55:23;;;;;;;6.40;3.83;;;14.80;99.90;;;;;;10461119;28;20045;-62
2021/05/15 16:00:26;;;;;;;6.13;2.88;;;14.70;99.90;;;;;;10461138;28;20041;-62
2021/05/15 16:05:28;;;;;;;2.15;1.52;;;14.70;99.90;;;;;;10476461;28;20123;-63
2021/05/15 16:10:31;;;;;;;1.67;1.58;;;14.80;99.90;;;;;;10461103;28;20045;-62
2021/05/15 16:15:36;;;;;;;2.53;1.27;;;14.90;99.90;;;;;;10459573;28;20047;-62
2021/05/15 16:20:38;;;;;;;3.05;1.25;;;14.90;99.90;;;;;;10460540;28;20366;-64
2021/05/15 16:25:41;;;;;;;2.25;1.42;;;14.90;99.90;;;;;;10460261;28;20041;-63
2021/05/15 16:30:43;;;;;;;1.35;1.25;;;15.00;99.90;;;;;;10460448;28;20051;-63
2021/05/15 16:35:50;;;;;;;1.58;1.38;;;15.00;99.90;;;;;;10459707;28;20518;-65
2021/05/15 16:40:53;;;;;;;2.60;1.23;;;15.00;99.90;;;;;;10459745;28;20044;-62
2021/05/15 16:45:56;;;;;;;4.90;1.35;;;15.20;99.90;;;;;;10459399;28;20526;-63
2021/05/15 16:50:58;;;;;;;3.33;1.52;;;15.10;99.90;;;;;;10460266;28;20048;-62
2021/05/15 16:56:03;;;;;;;2.35;1.65;;;15.20;99.90;;;;;;10459170;28;20073;-63
2021/05/15 17:01:08;;;;;;;2.28;1.38;;;15.20;99.90;;;;;;10458554;28;20059;-63
2021/05/15 17:06:12;;;;;;;3.33;1.42;;;15.10;99.90;;;;;;10474362;28;20041;-61
2021/05/15 17:11:13;;;;;;;1.67;1.58;;;15.20;99.90;;;;;;10457780;28;20485;-61
2021/05/15 17:16:16;;;;;;;2.40;1.52;;;15.20;99.90;;;;;;10458066;28;20505;-63
2021/05/15 17:21:20;;;;;;;2.60;1.77;;;14.90;99.90;;;;;;10458229;28;20143;-62
2021/05/15 17:26:22;;;;;;;3.03;1.65;;;14.70;99.90;;;;;;10457661;28;20049;-64
2021/05/15 17:31:25;;;;;;;1.77;1.48;;;14.60;99.90;;;;;;10458078;28;20045;-63
2021/05/15 17:36:27;;;;;;;1.95;1.85;;;14.20;99.90;;;;;;10456594;28;20080;-61
2021/05/15 17:41:29;;;;;;;3.17;2.33;;;14.40;99.90;;;;;;10457761;28;20048;-61
2021/05/15 17:46:31;;;;;;;3.33;1.83;;;14.40;99.90;;;;;;10457203;28;20392;-61
2021/05/15 17:51:33;;;;;;;2.90;2.60;;;14.30;99.90;;;;;;10457111;28;20385;-61
2021/05/15 17:56:35;;;;;;;4.57;3.35;;;13.90;99.90;;;;;;10457553;28;20055;-60
2021/05/15 18:01:39;;;;;;;8.18;2.97;;;13.60;99.90;;;;;;10472358;28;20045;-61
2021/05/15 18:06:42;;;;;;;5.10;3.75;;;13.80;99.90;;;;;;10457135;28;20045;-61
2021/05/15 18:11:44;;;;;;;10.95;5.45;;;14.00;99.90;;;;;;10472248;28;20047;-61
2021/05/15 18:16:46;;;;;;;14.80;5.30;;;13.90;99.90;;;;;;10457043;28;20057;-60
2021/05/15 18:21:47;;;;;;;10.30;6.70;;;13.90;99.90;;;;;;10456512;28;20044;-61
2021/05/15 18:26:49;;;;;;;21.92;9.10;;;13.80;99.90;;;;;;10456225;28;20045;-61
2021/05/15 18:31:52;;;;;;;10.93;5.30;;;13.70;99.90;;;;;;10456259;28;20473;-60
2021/05/15 18:36:53;;;;;;;5.60;4.53;;;13.40;99.90;;;;;;10455961;28;20087;-61
2021/05/15 18:41:56;;;;;;;9.32;4.45;;;13.30;99.90;;;;;;10463983;28;20059;-60
2021/05/15 18:46:58;;;;;;;4.75;4.00;;;13.50;99.90;;;;;;10462940;28;20055;-62
2021/05/15 18:52:01;;;;;;;6.57;2.35;;;13.50;99.90;;;;;;10464509;28;20051;-60
2021/05/15 18:57:03;;;;;;;5.97;2.90;;;13.30;99.90;;;;;;10463755;28;20060;-60
2021/05/15 19:02:05;;;;;;;8.70;4.05;;;12.70;99.90;;;;;;10463778;28;20381;-61
2021/05/15 19:07:07;;;;;;;6.15;3.53;;;12.80;99.90;;;;;;10463679;28;20047;-61
2021/05/15 19:12:09;;;;;;;5.50;3.58;;;12.90;99.90;;;;;;10463073;28;20056;-61
2021/05/15 19:17:11;;;;;;;3.97;3.67;;;13.00;99.90;;;;;;10462930;28;20053;-63
2021/05/15 19:22:13;;;;;;;5.57;3.75;;;12.80;99.90;;;;;;10462851;28;20041;-62
2021/05/15 19:27:15;;;;;;;6.72;4.43;;;12.70;99.90;;;;;;10462548;28;20051;-62
2021/05/15 19:32:17;;;;;;;7.00;4.50;;;12.70;99.90;;;;;;10462521;28;20045;-64
2021/05/15 19:37:19;;;;;;;5.72;4.13;;;12.60;99.90;;;;;;10462113;28;20082;-62
2021/05/15 19:42:21;;;;;;;6.78;4.47;;;12.70;99.90;;;;;;10462163;28;20053;-62
2021/05/15 19:47:23;;;;;;;5.13;4.68;;;12.70;99.90;;;;;;10461798;28;20063;-63
2021/05/15 19:52:25;;;;;;;6.95;5.25;;;12.70;99.90;;;;;;10461197;28;20396;-63
2021/05/15 19:57:27;;;;;;;4.82;3.25;;;12.50;99.90;;;;;;10461477;28;20049;-62
2021/05/15 20:02:31;;;;;;;6.47;5.18;;;12.60;99.90;;;;;;10461483;28;20051;-63
2021/05/15 20:07:33;;;;;;;5.82;4.78;;;12.50;99.90;;;;;;10461125;28;20052;-62
2021/05/15 20:12:36;;;;;;;7.13;6.38;;;12.50;99.90;;;;;;10461033;28;20041;-63
2021/05/15 20:17:58;;;;;;;7.18;6.47;;;12.20;99.90;;;;;;10460381;28;20087;-64
2021/05/15 20:23:02;;;;;;;7.60;6.57;;;12.10;99.90;;;;;;10460632;28;20052;-63
2021/05/15 20:28:05;;;;;;;6.18;5.57;;;12.00;99.90;;;;;;10460529;28;20128;-63
2021/05/15 20:33:09;;;;;;;4.55;4.15;;;12.00;99.90;;;;;;10460270;28;20059;-62
2021/05/15 20:38:11;;;;;;;4.15;3.78;;;12.10;99.90;;;;;;10460448;28;20048;-63
2021/05/15 20:43:14;;;;;;;8.50;4.80;;;12.10;99.90;;;;;;10460229;28;20045;-62
2021/05/15 20:48:16;;;;;;;5.38;4.10;;;12.10;99.90;;;;;;10459409;28;20045;-64
2021/05/15 20:53:18;;;;;;;5.85;4.25;;;12.10;99.90;;;;;;10459557;28;20048;-63
2021/05/15 20:58:20;;;;;;;5.28;4.15;;;12.00;99.90;;;;;;10459061;28;20045;-62
2021/05/15 21:03:22;;;;;;;7.00;5.47;;;12.10;99.90;;;;;;10458186;28;20041;-62
2021/05/15 21:08:25;;;;;;;6.20;5.60;;;12.10;99.90;;;;;;10459053;28;20109;-63
2021/05/15 21:13:27;;;;;;;9.48;7.15;;;12.20;99.90;;;;;;10459186;28;20052;-62
2021/05/15 21:18:29;;;;;;;9.23;7.05;;;12.20;99.90;;;;;;10458412;28;20049;-63
2021/05/15 21:23:32;;;;;;;5.13;4.57;;;12.20;99.90;;;;;;10458332;28;20048;-64
2021/05/15 21:28:34;;;;;;;8.75;5.97;;;12.00;99.90;;;;;;10456839;28;20489;-63
2021/05/15 21:33:36;;;;;;;3.75;3.17;;;12.10;99.90;;;;;;10457935;28;20040;-63
2021/05/15 21:38:38;;;;;;;8.52;5.13;;;12.00;99.90;;;;;;10458241;28;20045;-62
2021/05/15 21:43:40;;;;;;;8.60;5.07;;;12.00;99.90;;;;;;10457586;28;20040;-63
2021/05/15 21:48:42;;;;;;;9.65;7.00;;;12.00;99.90;;;;;;10456317;28;20045;-63
2021/05/15 21:53:44;;;;;;;7.40;5.72;;;11.90;99.90;;;;;;10456371;28;20052;-62
2021/05/15 21:58:46;;;;;;;6.70;5.10;;;11.80;99.90;;;;;;10456907;28;20485;-62
2021/05/15 22:03:48;;;;;;;8.77;6.50;;;11.80;99.90;;;;;;10472172;28;20037;-62
2021/05/15 22:08:50;;;;;;;6.18;5.65;;;11.70;99.90;;;;;;10456622;28;20051;-62
2021/05/15 22:13:53;;;;;;;6.95;6.30;;;11.70;99.90;;;;;;10456660;28;20048;-63
2021/05/15 22:18:56;;;;;;;9.50;4.15;;;11.60;99.90;;;;;;10456083;28;20556;-62
2021/05/15 22:23:59;;;;;;;8.38;5.28;;;11.60;99.90;;;;;;10456354;28;20063;-63
2021/05/15 22:29:03;;;;;;;7.45;6.05;;;11.60;99.90;;;;;;10456486;28;20045;-63
2021/05/15 22:34:04;;;;;;;9.40;4.80;;;11.60;99.90;;;;;;10456320;28;20041;-62
2021/05/15 22:39:06;;;;;;;13.52;6.38;;;11.50;99.90;;;;;;10456944;28;20041;-63
2021/05/15 22:44:08;;;;;;;10.40;6.55;;;11.50;99.90;;;;;;10456508;28;20048;-62
2021/05/15 22:49:10;;;;;;;9.95;5.82;;;11.50;99.90;;;;;;10456588;28;20056;-62
2021/05/15 22:54:12;;;;;;;10.52;6.10;;;11.50;99.90;;;;;;10455779;28;20397;-62
2021/05/15 22:59:15;;;;;;;10.80;6.60;;;11.50;99.90;;;;;;10455763;28;20465;-63
2021/05/15 23:04:17;;;;;;;15.60;7.80;;;11.40;99.90;;;;;;10455889;28;20128;-63
2021/05/15 23:09:19;;;;;;;18.73;7.57;;;11.40;99.90;;;;;;10454813;28;20047;-62
2021/05/15 23:14:21;;;;;;;13.15;6.93;;;11.50;99.90;;;;;;10455386;28;20041;-64
2021/05/15 23:19:24;;;;;;;14.05;9.18;;;11.30;99.90;;;;;;10455665;28;20055;-64
2021/05/15 23:24:26;;;;;;;19.02;9.45;;;11.30;99.90;;;;;;10457044;28;20037;-63
2021/05/15 23:29:28;;;;;;;15.57;8.00;;;11.40;99.90;;;;;;10463096;28;20392;-62
2021/05/15 23:34:30;;;;;;;13.77;7.93;;;11.30;99.90;;;;;;10462497;28;20037;-64
2021/05/15 23:39:33;;;;;;;16.08;7.72;;;11.40;99.90;;;;;;10462278;28;20047;-63
2021/05/15 23:44:35;;;;;;;18.58;9.75;;;11.30;99.90;;;;;;10462428;28;20047;-63
2021/05/15 23:49:37;;;;;;;16.50;9.10;;;11.30;99.90;;;;;;10461896;28;20045;-64
2021/05/15 23:54:39;;;;;;;28.55;8.98;;;11.30;99.90;;;;;;10461751;28;20041;-64
2021/05/15 23:59:41;;;;;;;16.85;10.07;;;11.40;99.90;;;;;;10461485;28;20045;-63
